sensor_id;sensor_type;location;lat;lon;timestamp;temperature;humidity
36442;DHT22;64346;50.820;16.274;2023-07-02T00:01:01;19.40;98.80
36442;DHT22;64346;50.820;16.274;2023-07-02T00:03:48;19.40;98.70
36442;DHT22;64346;50.820;16.274;2023-07-02T00:06:16;19.40;98.90
36442;DHT22;64346;50.820;16.274;2023-07-02T00:08:43;19.30;99.10
36442;DHT22;64346;50.820;16.274;2023-07-02T00:11:10;19.40;99.30
36442;DHT22;64346;50.820;16.274;2023-07-02T00:13:38;19.30;99.60
36442;DHT22;64346;50.820;16.274;2023-07-02T00:16:08;19.30;99.80
36442;DHT22;64346;50.820;16.274;2023-07-02T00:18:35;19.30;99.80
36442;DHT22;64346;50.820;16.274;2023-07-02T00:21:03;19.30;99.90
36442;DHT22;64346;50.820;16.274;2023-07-02T00:23:33;19.30;99.90
36442;DHT22;64346;50.820;16.274;2023-07-02T00:26:00;19.20;99.90
36442;DHT22;64346;50.820;16.274;2023-07-02T00:28:27;19.20;99.90
36442;DHT22;64346;50.820;16.274;2023-07-02T00:30:55;19.20;99.90
36442;DHT22;64346;50.820;16.274;2023-07-02T00:33:24;19.20;99.90
36442;DHT22;64346;50.820;16.274;2023-07-02T00:35:57;19.30;99.90
36442;DHT22;64346;50.820;16.274;2023-07-02T00:38:24;19.30;99.90
36442;DHT22;64346;50.820;16.274;2023-07-02T00:40:51;19.30;99.90
36442;DHT22;64346;50.820;16.274;2023-07-02T00:43:19;19.30;99.90
36442;DHT22;64346;50.820;16.274;2023-07-02T00:45:48;19.30;99.90
36442;DHT22;64346;50.820;16.274;2023-07-02T00:48:18;19.30;99.90
36442;DHT22;64346;50.820;16.274;2023-07-02T00:50:45;19.30;99.90
36442;DHT22;64346;50.820;16.274;2023-07-02T00:53:13;19.30;99.90
36442;DHT22;64346;50.820;16.274;2023-07-02T00:55:43;19.30;99.90
36442;DHT22;64346;50.820;16.274;2023-07-02T00:58:10;19.30;99.90
36442;DHT22;64346;50.820;16.274;2023-07-02T01:00:38;19.30;99.90
36442;DHT22;64346;50.820;16.274;2023-07-02T01:03:10;19.30;99.90
36442;DHT22;64346;50.820;16.274;2023-07-02T01:05:41;19.30;99.90
36442;DHT22;64346;50.820;16.274;2023-07-02T01:08:08;19.20;99.90
36442;DHT22;64346;50.820;16.274;2023-07-02T01:10:38;19.20;99.90
36442;DHT22;64346;50.820;16.274;2023-07-02T01:13:14;19.20;99.90
36442;DHT22;64346;50.820;16.274;2023-07-02T01:15:47;19.10;99.90
36442;DHT22;64346;50.820;16.274;2023-07-02T01:18:17;19.10;99.90
36442;DHT22;64346;50.820;16.274;2023-07-02T01:20:46;19.00;99.90
36442;DHT22;64346;50.820;16.274;2023-07-02T01:23:14;18.90;99.90
36442;DHT22;64346;50.820;16.274;2023-07-02T01:25:42;18.80;99.90
36442;DHT22;64346;50.820;16.274;2023-07-02T01:28:12;18.80;99.90
36442;DHT22;64346;50.820;16.274;2023-07-02T01:30:39;18.70;99.90
36442;DHT22;64346;50.820;16.274;2023-07-02T01:33:09;18.70;99.90
36442;DHT22;64346;50.820;16.274;2023-07-02T01:35:39;18.70;99.90
36442;DHT22;64346;50.820;16.274;2023-07-02T01:38:09;18.70;99.90
36442;DHT22;64346;50.820;16.274;2023-07-02T01:40:41;18.60;99.90
36442;DHT22;64346;50.820;16.274;2023-07-02T01:43:13;18.60;99.90
36442;DHT22;64346;50.820;16.274;2023-07-02T01:45:45;18.70;99.90
36442;DHT22;64346;50.820;16.274;2023-07-02T01:48:15;18.70;99.90
36442;DHT22;64346;50.820;16.274;2023-07-02T01:50:43;18.80;99.90
36442;DHT22;64346;50.820;16.274;2023-07-02T01:53:10;18.90;99.90
36442;DHT22;64346;50.820;16.274;2023-07-02T01:55:37;18.90;99.90
36442;DHT22;64346;50.820;16.274;2023-07-02T01:58:04;19.00;99.90
36442;DHT22;64346;50.820;16.274;2023-07-02T02:00:32;19.00;99.90
36442;DHT22;64346;50.820;16.274;2023-07-02T02:03:00;19.10;99.90
36442;DHT22;64346;50.820;16.274;2023-07-02T02:05:28;19.10;99.90
36442;DHT22;64346;50.820;16.274;2023-07-02T02:07:55;19.20;99.90
36442;DHT22;64346;50.820;16.274;2023-07-02T02:10:22;19.30;99.90
36442;DHT22;64346;50.820;16.274;2023-07-02T02:12:52;19.20;99.90
36442;DHT22;64346;50.820;16.274;2023-07-02T02:15:20;19.20;99.90
36442;DHT22;64346;50.820;16.274;2023-07-02T02:17:47;19.30;99.90
36442;DHT22;64346;50.820;16.274;2023-07-02T02:20:14;19.30;99.90
36442;DHT22;64346;50.820;16.274;2023-07-02T02:22:44;19.30;99.90
36442;DHT22;64346;50.820;16.274;2023-07-02T02:25:11;19.30;99.90
36442;DHT22;64346;50.820;16.274;2023-07-02T02:27:41;19.30;99.90
36442;DHT22;64346;50.820;16.274;2023-07-02T02:30:08;19.30;99.90
36442;DHT22;64346;50.820;16.274;2023-07-02T02:32:36;19.30;99.90
36442;DHT22;64346;50.820;16.274;2023-07-02T02:35:03;19.30;99.90
36442;DHT22;64346;50.820;16.274;2023-07-02T02:37:33;19.40;99.90
36442;DHT22;64346;50.820;16.274;2023-07-02T02:40:06;19.30;99.90
36442;DHT22;64346;50.820;16.274;2023-07-02T02:42:37;19.30;99.90
36442;DHT22;64346;50.820;16.274;2023-07-02T02:45:05;19.30;99.90
36442;DHT22;64346;50.820;16.274;2023-07-02T02:47:33;19.30;99.90
36442;DHT22;64346;50.820;16.274;2023-07-02T02:50:00;19.30;99.90
36442;DHT22;64346;50.820;16.274;2023-07-02T02:52:27;19.20;99.90
36442;DHT22;64346;50.820;16.274;2023-07-02T02:54:55;19.20;99.90
36442;DHT22;64346;50.820;16.274;2023-07-02T02:57:22;19.10;99.90
36442;DHT22;64346;50.820;16.274;2023-07-02T02:59:50;19.10;99.90
36442;DHT22;64346;50.820;16.274;2023-07-02T03:02:19;19.00;99.90
36442;DHT22;64346;50.820;16.274;2023-07-02T03:04:49;18.90;99.90
36442;DHT22;64346;50.820;16.274;2023-07-02T03:07:19;18.90;99.90
36442;DHT22;64346;50.820;16.274;2023-07-02T03:09:47;18.90;99.90
36442;DHT22;64346;50.820;16.274;2023-07-02T03:12:14;18.80;99.90
36442;DHT22;64346;50.820;16.274;2023-07-02T03:14:42;18.70;99.90
36442;DHT22;64346;50.820;16.274;2023-07-02T03:17:13;18.70;99.90
36442;DHT22;64346;50.820;16.274;2023-07-02T03:19:40;18.70;99.90
36442;DHT22;64346;50.820;16.274;2023-07-02T03:22:10;18.70;99.90
36442;DHT22;64346;50.820;16.274;2023-07-02T03:24:37;18.80;99.90
36442;DHT22;64346;50.820;16.274;2023-07-02T03:27:05;18.80;99.90
36442;DHT22;64346;50.820;16.274;2023-07-02T03:29:36;18.80;99.90
36442;DHT22;64346;50.820;16.274;2023-07-02T03:32:04;18.90;99.90
36442;DHT22;64346;50.820;16.274;2023-07-02T03:34:32;18.80;99.90
36442;DHT22;64346;50.820;16.274;2023-07-02T03:37:01;18.80;99.90
36442;DHT22;64346;50.820;16.274;2023-07-02T03:39:29;18.80;99.90
36442;DHT22;64346;50.820;16.274;2023-07-02T03:41:56;18.80;99.90
36442;DHT22;64346;50.820;16.274;2023-07-02T03:44:23;18.70;99.90
36442;DHT22;64346;50.820;16.274;2023-07-02T03:46:51;18.70;99.90
36442;DHT22;64346;50.820;16.274;2023-07-02T03:49:22;18.60;99.90
36442;DHT22;64346;50.820;16.274;2023-07-02T03:51:52;18.60;99.90
36442;DHT22;64346;50.820;16.274;2023-07-02T03:54:22;18.60;99.90
36442;DHT22;64346;50.820;16.274;2023-07-02T03:56:49;18.60;99.90
36442;DHT22;64346;50.820;16.274;2023-07-02T03:59:16;18.60;99.90
36442;DHT22;64346;50.820;16.274;2023-07-02T04:01:43;18.70;99.90
36442;DHT22;64346;50.820;16.274;2023-07-02T04:04:16;18.80;99.90
36442;DHT22;64346;50.820;16.274;2023-07-02T04:06:43;18.80;99.90
36442;DHT22;64346;50.820;16.274;2023-07-02T04:09:13;18.90;99.90
36442;DHT22;64346;50.820;16.274;2023-07-02T04:11:40;19.00;99.90
36442;DHT22;64346;50.820;16.274;2023-07-02T04:14:07;19.00;99.90
36442;DHT22;64346;50.820;16.274;2023-07-02T04:16:34;19.10;99.90
36442;DHT22;64346;50.820;16.274;2023-07-02T04:19:02;19.10;99.90
36442;DHT22;64346;50.820;16.274;2023-07-02T04:21:29;19.20;99.90
36442;DHT22;64346;50.820;16.274;2023-07-02T04:23:57;19.30;99.90
36442;DHT22;64346;50.820;16.274;2023-07-02T04:26:24;19.30;99.90
36442;DHT22;64346;50.820;16.274;2023-07-02T04:29:14;19.40;99.90
36442;DHT22;64346;50.820;16.274;2023-07-02T04:31:41;19.60;99.90
36442;DHT22;64346;50.820;16.274;2023-07-02T04:34:11;19.70;99.90
36442;DHT22;64346;50.820;16.274;2023-07-02T04:36:38;19.80;99.90
36442;DHT22;64346;50.820;16.274;2023-07-02T04:39:05;19.90;99.90
36442;DHT22;64346;50.820;16.274;2023-07-02T04:41:33;20.10;99.90
36442;DHT22;64346;50.820;16.274;2023-07-02T04:44:00;20.20;99.90
36442;DHT22;64346;50.820;16.274;2023-07-02T04:46:27;20.30;99.90
36442;DHT22;64346;50.820;16.274;2023-07-02T04:48:55;20.30;99.90
36442;DHT22;64346;50.820;16.274;2023-07-02T04:51:25;20.30;99.90
36442;DHT22;64346;50.820;16.274;2023-07-02T04:53:54;20.30;99.90
36442;DHT22;64346;50.820;16.274;2023-07-02T04:56:24;20.20;99.90
36442;DHT22;64346;50.820;16.274;2023-07-02T04:58:51;20.20;99.90
36442;DHT22;64346;50.820;16.274;2023-07-02T05:01:18;20.10;99.90
36442;DHT22;64346;50.820;16.274;2023-07-02T05:03:46;20.10;99.90
36442;DHT22;64346;50.820;16.274;2023-07-02T05:06:16;20.00;99.90
36442;DHT22;64346;50.820;16.274;2023-07-02T05:08:45;20.00;99.90
36442;DHT22;64346;50.820;16.274;2023-07-02T05:11:12;19.90;99.90
36442;DHT22;64346;50.820;16.274;2023-07-02T05:13:40;19.90;99.90
36442;DHT22;64346;50.820;16.274;2023-07-02T05:16:07;19.80;99.90
36442;DHT22;64346;50.820;16.274;2023-07-02T05:18:36;19.80;99.90
36442;DHT22;64346;50.820;16.274;2023-07-02T05:21:04;19.70;99.90
36442;DHT22;64346;50.820;16.274;2023-07-02T05:23:31;19.80;99.90
36442;DHT22;64346;50.820;16.274;2023-07-02T05:26:01;19.80;99.90
36442;DHT22;64346;50.820;16.274;2023-07-02T05:28:31;19.80;99.90
36442;DHT22;64346;50.820;16.274;2023-07-02T05:30:58;19.80;99.90
36442;DHT22;64346;50.820;16.274;2023-07-02T05:33:28;19.80;99.90
36442;DHT22;64346;50.820;16.274;2023-07-02T05:35:55;19.80;99.90
36442;DHT22;64346;50.820;16.274;2023-07-02T05:38:25;19.90;99.90
36442;DHT22;64346;50.820;16.274;2023-07-02T05:40:52;20.00;99.90
36442;DHT22;64346;50.820;16.274;2023-07-02T05:43:22;20.20;99.90
36442;DHT22;64346;50.820;16.274;2023-07-02T05:45:52;20.20;99.90
36442;DHT22;64346;50.820;16.274;2023-07-02T05:48:20;20.20;99.90
36442;DHT22;64346;50.820;16.274;2023-07-02T05:50:47;20.30;99.90
36442;DHT22;64346;50.820;16.274;2023-07-02T05:53:15;20.20;99.90
36442;DHT22;64346;50.820;16.274;2023-07-02T05:55:42;20.20;99.90
36442;DHT22;64346;50.820;16.274;2023-07-02T05:58:10;20.10;99.90
36442;DHT22;64346;50.820;16.274;2023-07-02T06:00:42;20.10;99.90
36442;DHT22;64346;50.820;16.274;2023-07-02T06:03:09;20.10;99.90
36442;DHT22;64346;50.820;16.274;2023-07-02T06:05:37;20.20;99.90
36442;DHT22;64346;50.820;16.274;2023-07-02T06:08:07;20.30;99.90
36442;DHT22;64346;50.820;16.274;2023-07-02T06:10:34;20.40;99.90
36442;DHT22;64346;50.820;16.274;2023-07-02T06:13:01;20.40;99.90
36442;DHT22;64346;50.820;16.274;2023-07-02T06:15:29;20.60;99.90
36442;DHT22;64346;50.820;16.274;2023-07-02T06:17:56;20.60;99.90
36442;DHT22;64346;50.820;16.274;2023-07-02T06:20:26;20.60;99.90
36442;DHT22;64346;50.820;16.274;2023-07-02T06:22:53;20.50;99.90
36442;DHT22;64346;50.820;16.274;2023-07-02T06:25:20;20.40;99.90
36442;DHT22;64346;50.820;16.274;2023-07-02T06:27:50;20.30;99.90
36442;DHT22;64346;50.820;16.274;2023-07-02T06:30:17;20.30;99.90
36442;DHT22;64346;50.820;16.274;2023-07-02T06:32:45;20.30;99.90
36442;DHT22;64346;50.820;16.274;2023-07-02T06:35:12;20.50;99.90
36442;DHT22;64346;50.820;16.274;2023-07-02T06:37:39;20.60;99.90
36442;DHT22;64346;50.820;16.274;2023-07-02T06:40:10;20.90;99.90
36442;DHT22;64346;50.820;16.274;2023-07-02T06:42:37;21.30;99.90
36442;DHT22;64346;50.820;16.274;2023-07-02T06:45:07;21.90;99.90
36442;DHT22;64346;50.820;16.274;2023-07-02T06:47:35;22.60;99.90
36442;DHT22;64346;50.820;16.274;2023-07-02T06:50:05;23.50;99.90
36442;DHT22;64346;50.820;16.274;2023-07-02T06:52:32;27.30;99.90
36442;DHT22;64346;50.820;16.274;2023-07-02T06:55:00;32.50;93.90
36442;DHT22;64346;50.820;16.274;2023-07-02T06:57:29;34.30;86.20
36442;DHT22;64346;50.820;16.274;2023-07-02T07:00:02;34.20;81.60
36442;DHT22;64346;50.820;16.274;2023-07-02T07:02:30;33.40;80.90
36442;DHT22;64346;50.820;16.274;2023-07-02T07:04:59;33.60;80.50
36442;DHT22;64346;50.820;16.274;2023-07-02T07:07:27;33.40;79.30
36442;DHT22;64346;50.820;16.274;2023-07-02T07:09:54;32.70;79.60
36442;DHT22;64346;50.820;16.274;2023-07-02T07:12:21;32.90;80.20
36442;DHT22;64346;50.820;16.274;2023-07-02T07:14:49;33.60;78.80
36442;DHT22;64346;50.820;16.274;2023-07-02T07:17:16;33.80;77.00
36442;DHT22;64346;50.820;16.274;2023-07-02T07:19:46;32.90;77.80
36442;DHT22;64346;50.820;16.274;2023-07-02T07:22:13;31.90;79.20
36442;DHT22;64346;50.820;16.274;2023-07-02T07:24:41;30.80;81.40
36442;DHT22;64346;50.820;16.274;2023-07-02T07:27:12;29.70;83.40
36442;DHT22;64346;50.820;16.274;2023-07-02T07:29:39;28.70;84.70
36442;DHT22;64346;50.820;16.274;2023-07-02T07:32:09;27.80;87.80
36442;DHT22;64346;50.820;16.274;2023-07-02T07:34:36;27.20;89.00
36442;DHT22;64346;50.820;16.274;2023-07-02T07:37:04;26.60;90.50
36442;DHT22;64346;50.820;16.274;2023-07-02T07:39:31;26.10;91.50
36442;DHT22;64346;50.820;16.274;2023-07-02T07:42:01;25.60;92.40
36442;DHT22;64346;50.820;16.274;2023-07-02T07:44:28;25.20;93.10
36442;DHT22;64346;50.820;16.274;2023-07-02T07:46:58;24.80;94.00
36442;DHT22;64346;50.820;16.274;2023-07-02T07:49:27;24.60;94.70
36442;DHT22;64346;50.820;16.274;2023-07-02T07:51:57;24.00;94.60
36442;DHT22;64346;50.820;16.274;2023-07-02T07:54:24;23.40;94.20
36442;DHT22;64346;50.820;16.274;2023-07-02T07:56:52;22.60;95.10
36442;DHT22;64346;50.820;16.274;2023-07-02T07:59:19;21.90;96.70
36442;DHT22;64346;50.820;16.274;2023-07-02T08:01:47;21.30;99.90
36442;DHT22;64346;50.820;16.274;2023-07-02T08:04:17;20.80;99.90
36442;DHT22;64346;50.820;16.274;2023-07-02T08:06:44;20.40;99.90
36442;DHT22;64346;50.820;16.274;2023-07-02T08:09:11;20.00;99.90
36442;DHT22;64346;50.820;16.274;2023-07-02T08:11:39;19.90;99.90
36442;DHT22;64346;50.820;16.274;2023-07-02T08:14:06;19.70;99.90
36442;DHT22;64346;50.820;16.274;2023-07-02T08:16:33;19.50;99.90
36442;DHT22;64346;50.820;16.274;2023-07-02T08:19:03;19.40;99.90
36442;DHT22;64346;50.820;16.274;2023-07-02T08:21:31;19.40;99.90
36442;DHT22;64346;50.820;16.274;2023-07-02T08:23:58;19.50;99.90
36442;DHT22;64346;50.820;16.274;2023-07-02T08:26:28;19.60;99.90
36442;DHT22;64346;50.820;16.274;2023-07-02T08:28:55;19.70;99.90
36442;DHT22;64346;50.820;16.274;2023-07-02T08:31:22;19.90;99.90
36442;DHT22;64346;50.820;16.274;2023-07-02T08:33:51;20.00;99.90
36442;DHT22;64346;50.820;16.274;2023-07-02T08:36:20;20.00;99.90
36442;DHT22;64346;50.820;16.274;2023-07-02T08:38:50;20.10;99.90
36442;DHT22;64346;50.820;16.274;2023-07-02T08:41:21;20.10;99.90
36442;DHT22;64346;50.820;16.274;2023-07-02T08:43:48;20.20;99.90
36442;DHT22;64346;50.820;16.274;2023-07-02T08:46:16;20.10;99.90
36442;DHT22;64346;50.820;16.274;2023-07-02T08:48:46;20.10;99.90
36442;DHT22;64346;50.820;16.274;2023-07-02T08:51:14;20.00;99.90
36442;DHT22;64346;50.820;16.274;2023-07-02T08:53:44;19.80;99.90
36442;DHT22;64346;50.820;16.274;2023-07-02T08:56:11;19.70;99.90
36442;DHT22;64346;50.820;16.274;2023-07-02T08:58:39;19.60;99.90
36442;DHT22;64346;50.820;16.274;2023-07-02T09:01:10;19.50;99.90
36442;DHT22;64346;50.820;16.274;2023-07-02T09:03:39;19.40;99.90
36442;DHT22;64346;50.820;16.274;2023-07-02T09:06:08;19.40;99.90
36442;DHT22;64346;50.820;16.274;2023-07-02T09:08:39;19.40;99.90
36442;DHT22;64346;50.820;16.274;2023-07-02T09:11:11;19.50;99.90
36442;DHT22;64346;50.820;16.274;2023-07-02T09:13:59;19.70;99.90
36442;DHT22;64346;50.820;16.274;2023-07-02T09:19:08;20.00;99.90
36442;DHT22;64346;50.820;16.274;2023-07-02T09:21:47;20.10;99.90
36442;DHT22;64346;50.820;16.274;2023-07-02T09:24:14;20.20;99.90
36442;DHT22;64346;50.820;16.274;2023-07-02T09:26:46;20.30;99.90
36442;DHT22;64346;50.820;16.274;2023-07-02T09:29:32;20.30;99.90
36442;DHT22;64346;50.820;16.274;2023-07-02T09:32:06;20.40;99.90
36442;DHT22;64346;50.820;16.274;2023-07-02T09:34:38;20.50;99.90
36442;DHT22;64346;50.820;16.274;2023-07-02T09:37:24;20.50;99.90
36442;DHT22;64346;50.820;16.274;2023-07-02T09:39:53;20.60;99.90
36442;DHT22;64346;50.820;16.274;2023-07-02T09:42:21;20.70;99.90
36442;DHT22;64346;50.820;16.274;2023-07-02T09:44:52;20.80;99.90
36442;DHT22;64346;50.820;16.274;2023-07-02T09:47:23;20.90;99.90
36442;DHT22;64346;50.820;16.274;2023-07-02T09:49:59;21.10;99.90
36442;DHT22;64346;50.820;16.274;2023-07-02T09:52:32;21.20;99.90
36442;DHT22;64346;50.820;16.274;2023-07-02T09:55:00;21.50;99.90
36442;DHT22;64346;50.820;16.274;2023-07-02T09:57:28;21.60;99.90
36442;DHT22;64346;50.820;16.274;2023-07-02T09:59:55;22.00;99.90
36442;DHT22;64346;50.820;16.274;2023-07-02T10:02:25;22.40;99.90
36442;DHT22;64346;50.820;16.274;2023-07-02T10:04:52;23.00;99.90
36442;DHT22;64346;50.820;16.274;2023-07-02T10:07:30;23.90;99.90
36442;DHT22;64346;50.820;16.274;2023-07-02T10:09:58;24.70;99.90
36442;DHT22;64346;50.820;16.274;2023-07-02T10:12:28;25.00;99.90
36442;DHT22;64346;50.820;16.274;2023-07-02T10:14:57;25.20;99.80
36442;DHT22;64346;50.820;16.274;2023-07-02T10:17:32;25.30;99.20
36442;DHT22;64346;50.820;16.274;2023-07-02T10:20:05;25.30;99.20
36442;DHT22;64346;50.820;16.274;2023-07-02T10:22:51;25.30;98.90
36442;DHT22;64346;50.820;16.274;2023-07-02T10:27:55;25.10;96.50
36442;DHT22;64346;50.820;16.274;2023-07-02T10:30:37;25.00;95.80
36442;DHT22;64346;50.820;16.274;2023-07-02T10:33:11;25.00;95.40
36442;DHT22;64346;50.820;16.274;2023-07-02T10:35:44;25.30;94.50
36442;DHT22;64346;50.820;16.274;2023-07-02T10:38:24;25.60;93.40
36442;DHT22;64346;50.820;16.274;2023-07-02T10:40:55;26.10;92.70
36442;DHT22;64346;50.820;16.274;2023-07-02T10:43:27;26.50;92.50
36442;DHT22;64346;50.820;16.274;2023-07-02T10:45:58;26.60;92.10
36442;DHT22;64346;50.820;16.274;2023-07-02T10:48:26;26.50;91.80
36442;DHT22;64346;50.820;16.274;2023-07-02T10:50:53;26.30;91.30
36442;DHT22;64346;50.820;16.274;2023-07-02T10:53:23;26.10;91.70
36442;DHT22;64346;50.820;16.274;2023-07-02T10:55:55;26.10;91.50
36442;DHT22;64346;50.820;16.274;2023-07-02T10:58:24;26.10;91.60
36442;DHT22;64346;50.820;16.274;2023-07-02T11:00:57;26.30;91.80
36442;DHT22;64346;50.820;16.274;2023-07-02T11:03:26;26.60;91.60
36442;DHT22;64346;50.820;16.274;2023-07-02T11:05:54;26.90;91.00
36442;DHT22;64346;50.820;16.274;2023-07-02T11:08:37;27.10;90.50
36442;DHT22;64346;50.820;16.274;2023-07-02T11:11:08;27.10;89.20
36442;DHT22;64346;50.820;16.274;2023-07-02T11:13:47;27.00;88.80
36442;DHT22;64346;50.820;16.274;2023-07-02T11:16:25;27.10;89.70
36442;DHT22;64346;50.820;16.274;2023-07-02T11:19:05;27.10;88.80
36442;DHT22;64346;50.820;16.274;2023-07-02T11:21:33;27.00;88.30
36442;DHT22;64346;50.820;16.274;2023-07-02T11:24:07;26.80;88.20
36442;DHT22;64346;50.820;16.274;2023-07-02T11:26:37;26.60;87.90
36442;DHT22;64346;50.820;16.274;2023-07-02T11:29:10;26.60;88.00
36442;DHT22;64346;50.820;16.274;2023-07-02T11:31:37;26.50;87.50
36442;DHT22;64346;50.820;16.274;2023-07-02T11:34:18;26.40;88.20
36442;DHT22;64346;50.820;16.274;2023-07-02T11:36:48;26.30;88.50
36442;DHT22;64346;50.820;16.274;2023-07-02T11:39:18;26.20;88.50
36442;DHT22;64346;50.820;16.274;2023-07-02T11:41:46;26.20;89.30
36442;DHT22;64346;50.820;16.274;2023-07-02T11:44:16;26.20;89.30
36442;DHT22;64346;50.820;16.274;2023-07-02T11:46:47;26.20;88.40
36442;DHT22;64346;50.820;16.274;2023-07-02T11:49:18;26.20;88.50
36442;DHT22;64346;50.820;16.274;2023-07-02T11:51:47;26.20;88.30
36442;DHT22;64346;50.820;16.274;2023-07-02T11:54:15;26.20;87.90
36442;DHT22;64346;50.820;16.274;2023-07-02T11:56:45;26.40;88.10
36442;DHT22;64346;50.820;16.274;2023-07-02T11:59:15;26.60;86.60
36442;DHT22;64346;50.820;16.274;2023-07-02T12:01:42;26.60;86.60
36442;DHT22;64346;50.820;16.274;2023-07-02T12:04:11;26.60;87.20
36442;DHT22;64346;50.820;16.274;2023-07-02T12:06:40;26.40;86.90
36442;DHT22;64346;50.820;16.274;2023-07-02T12:09:07;26.30;87.40
36442;DHT22;64346;50.820;16.274;2023-07-02T12:11:35;26.30;86.30
36442;DHT22;64346;50.820;16.274;2023-07-02T12:14:02;26.20;85.00
36442;DHT22;64346;50.820;16.274;2023-07-02T12:16:32;26.10;85.40
36442;DHT22;64346;50.820;16.274;2023-07-02T12:18:59;26.00;86.70
36442;DHT22;64346;50.820;16.274;2023-07-02T12:21:29;25.90;87.80
36442;DHT22;64346;50.820;16.274;2023-07-02T12:23:56;25.90;87.90
36442;DHT22;64346;50.820;16.274;2023-07-02T12:26:23;25.90;87.80
36442;DHT22;64346;50.820;16.274;2023-07-02T12:28:51;25.90;86.50
36442;DHT22;64346;50.820;16.274;2023-07-02T12:31:18;25.90;86.00
36442;DHT22;64346;50.820;16.274;2023-07-02T12:33:50;25.80;85.90
36442;DHT22;64346;50.820;16.274;2023-07-02T12:36:17;25.90;86.80
36442;DHT22;64346;50.820;16.274;2023-07-02T12:38:45;25.80;87.50
36442;DHT22;64346;50.820;16.274;2023-07-02T12:41:15;25.70;88.30
36442;DHT22;64346;50.820;16.274;2023-07-02T12:43:42;25.70;89.00
36442;DHT22;64346;50.820;16.274;2023-07-02T12:46:10;25.70;88.50
36442;DHT22;64346;50.820;16.274;2023-07-02T12:48:37;25.70;87.00
36442;DHT22;64346;50.820;16.274;2023-07-02T12:51:04;25.70;84.60
36442;DHT22;64346;50.820;16.274;2023-07-02T12:53:34;25.20;84.40
36442;DHT22;64346;50.820;16.274;2023-07-02T12:56:02;25.10;85.70
36442;DHT22;64346;50.820;16.274;2023-07-02T12:58:32;25.00;85.80
36442;DHT22;64346;50.820;16.274;2023-07-02T13:00:59;24.90;85.80
36442;DHT22;64346;50.820;16.274;2023-07-02T13:03:30;25.00;86.60
36442;DHT22;64346;50.820;16.274;2023-07-02T13:06:01;25.10;86.20
36442;DHT22;64346;50.820;16.274;2023-07-02T13:08:29;25.30;86.20
36442;DHT22;64346;50.820;16.274;2023-07-02T13:10:56;25.50;85.20
36442;DHT22;64346;50.820;16.274;2023-07-02T13:13:31;25.70;84.30
36442;DHT22;64346;50.820;16.274;2023-07-02T13:16:15;25.70;83.30
36442;DHT22;64346;50.820;16.274;2023-07-02T13:18:42;25.50;84.00
36442;DHT22;64346;50.820;16.274;2023-07-02T13:21:09;25.20;84.90
36442;DHT22;64346;50.820;16.274;2023-07-02T13:23:37;25.00;86.40
36442;DHT22;64346;50.820;16.274;2023-07-02T13:26:06;24.90;87.20
36442;DHT22;64346;50.820;16.274;2023-07-02T13:28:34;24.70;88.20
36442;DHT22;64346;50.820;16.274;2023-07-02T13:31:01;24.70;89.00
36442;DHT22;64346;50.820;16.274;2023-07-02T13:33:29;24.70;88.80
36442;DHT22;64346;50.820;16.274;2023-07-02T13:35:58;24.70;89.10
36442;DHT22;64346;50.820;16.274;2023-07-02T13:38:26;24.80;88.80
36442;DHT22;64346;50.820;16.274;2023-07-02T13:40:55;24.90;88.10
36442;DHT22;64346;50.820;16.274;2023-07-02T13:43:23;25.00;88.00
36442;DHT22;64346;50.820;16.274;2023-07-02T13:45:53;25.10;87.50
36442;DHT22;64346;50.820;16.274;2023-07-02T13:48:20;25.10;88.10
36442;DHT22;64346;50.820;16.274;2023-07-02T13:50:48;25.10;87.00
36442;DHT22;64346;50.820;16.274;2023-07-02T13:53:15;25.10;87.10
36442;DHT22;64346;50.820;16.274;2023-07-02T13:55:42;25.20;86.10
36442;DHT22;64346;50.820;16.274;2023-07-02T13:58:10;25.30;85.00
36442;DHT22;64346;50.820;16.274;2023-07-02T14:00:41;25.40;84.80
36442;DHT22;64346;50.820;16.274;2023-07-02T14:03:09;25.30;84.90
36442;DHT22;64346;50.820;16.274;2023-07-02T14:05:39;25.20;84.40
36442;DHT22;64346;50.820;16.274;2023-07-02T14:08:06;25.20;84.70
36442;DHT22;64346;50.820;16.274;2023-07-02T14:10:34;25.10;84.00
36442;DHT22;64346;50.820;16.274;2023-07-02T14:13:04;25.00;83.40
36442;DHT22;64346;50.820;16.274;2023-07-02T14:15:34;24.90;84.10
36442;DHT22;64346;50.820;16.274;2023-07-02T14:18:02;24.80;84.00
36442;DHT22;64346;50.820;16.274;2023-07-02T14:20:32;24.70;84.50
36442;DHT22;64346;50.820;16.274;2023-07-02T14:23:05;24.60;85.10
36442;DHT22;64346;50.820;16.274;2023-07-02T14:25:33;24.50;85.60
36442;DHT22;64346;50.820;16.274;2023-07-02T14:28:11;24.40;86.10
36442;DHT22;64346;50.820;16.274;2023-07-02T14:30:38;24.30;86.50
36442;DHT22;64346;50.820;16.274;2023-07-02T14:33:05;24.30;86.90
36442;DHT22;64346;50.820;16.274;2023-07-02T14:35:33;24.10;86.40
36442;DHT22;64346;50.820;16.274;2023-07-02T14:38:03;24.10;85.90
36442;DHT22;64346;50.820;16.274;2023-07-02T14:40:39;23.90;86.70
36442;DHT22;64346;50.820;16.274;2023-07-02T14:43:11;23.80;86.90
36442;DHT22;64346;50.820;16.274;2023-07-02T14:45:47;23.70;86.30
36442;DHT22;64346;50.820;16.274;2023-07-02T14:48:18;23.60;86.90
36442;DHT22;64346;50.820;16.274;2023-07-02T14:50:49;23.70;87.00
36442;DHT22;64346;50.820;16.274;2023-07-02T14:53:18;23.90;87.10
36442;DHT22;64346;50.820;16.274;2023-07-02T14:55:46;24.20;85.80
36442;DHT22;64346;50.820;16.274;2023-07-02T14:58:18;24.40;85.40
36442;DHT22;64346;50.820;16.274;2023-07-02T15:00:46;24.50;85.00
36442;DHT22;64346;50.820;16.274;2023-07-02T15:03:17;24.50;84.50
36442;DHT22;64346;50.820;16.274;2023-07-02T15:05:46;24.50;84.70
36442;DHT22;64346;50.820;16.274;2023-07-02T15:08:16;24.40;85.00
36442;DHT22;64346;50.820;16.274;2023-07-02T15:10:47;24.50;85.20
36442;DHT22;64346;50.820;16.274;2023-07-02T15:13:15;24.40;85.80
36442;DHT22;64346;50.820;16.274;2023-07-02T15:15:43;24.60;86.70
36442;DHT22;64346;50.820;16.274;2023-07-02T15:18:13;24.70;85.70
36442;DHT22;64346;50.820;16.274;2023-07-02T15:20:43;24.80;84.60
36442;DHT22;64346;50.820;16.274;2023-07-02T15:23:12;25.00;84.00
36442;DHT22;64346;50.820;16.274;2023-07-02T15:25:39;25.10;83.80
36442;DHT22;64346;50.820;16.274;2023-07-02T15:28:07;25.20;83.50
36442;DHT22;64346;50.820;16.274;2023-07-02T15:30:38;25.20;83.70
36442;DHT22;64346;50.820;16.274;2023-07-02T15:33:09;25.10;82.70